sensor_id;sensor_type;location;lat;lon;timestamp;temperature;humidity
1830;DHT22;914;48.118;11.600;2023-08-12T00:01:49;22.40;97.20
1830;DHT22;914;48.118;11.600;2023-08-12T00:04:15;22.40;97.10
1830;DHT22;914;48.118;11.600;2023-08-12T00:06:42;22.40;97.20
1830;DHT22;914;48.118;11.600;2023-08-12T00:09:08;22.60;97.40
1830;DHT22;914;48.118;11.600;2023-08-12T00:11:35;22.70;97.20
1830;DHT22;914;48.118;11.600;2023-08-12T00:14:00;22.80;97.20
1830;DHT22;914;48.118;11.600;2023-08-12T00:16:26;22.80;97.30
1830;DHT22;914;48.118;11.600;2023-08-12T00:18:51;22.70;97.20
1830;DHT22;914;48.118;11.600;2023-08-12T00:21:17;22.70;97.20
1830;DHT22;914;48.118;11.600;2023-08-12T00:23:43;22.60;97.30
1830;DHT22;914;48.118;11.600;2023-08-12T00:26:10;22.50;97.40
1830;DHT22;914;48.118;11.600;2023-08-12T00:28:36;22.40;97.40
1830;DHT22;914;48.118;11.600;2023-08-12T00:31:02;22.40;97.50
1830;DHT22;914;48.118;11.600;2023-08-12T00:33:28;22.20;97.90
1830;DHT22;914;48.118;11.600;2023-08-12T00:35:54;22.10;97.80
1830;DHT22;914;48.118;11.600;2023-08-12T00:38:20;22.10;97.90
1830;DHT22;914;48.118;11.600;2023-08-12T00:40:46;22.00;97.90
1830;DHT22;914;48.118;11.600;2023-08-12T00:43:12;21.90;98.20
1830;DHT22;914;48.118;11.600;2023-08-12T00:45:38;21.90;98.40
1830;DHT22;914;48.118;11.600;2023-08-12T00:48:04;21.90;98.40
1830;DHT22;914;48.118;11.600;2023-08-12T00:50:30;21.80;98.70
1830;DHT22;914;48.118;11.600;2023-08-12T00:52:56;21.90;98.80
1830;DHT22;914;48.118;11.600;2023-08-12T00:55:23;21.90;98.90
1830;DHT22;914;48.118;11.600;2023-08-12T00:57:49;22.00;98.50
1830;DHT22;914;48.118;11.600;2023-08-12T01:00:16;22.00;98.50
1830;DHT22;914;48.118;11.600;2023-08-12T01:02:46;21.90;98.30
1830;DHT22;914;48.118;11.600;2023-08-12T01:05:14;21.90;98.40
1830;DHT22;914;48.118;11.600;2023-08-12T01:07:40;21.80;98.30
1830;DHT22;914;48.118;11.600;2023-08-12T01:10:06;21.80;98.60
1830;DHT22;914;48.118;11.600;2023-08-12T01:12:37;21.90;98.70
1830;DHT22;914;48.118;11.600;2023-08-12T01:15:09;21.90;98.60
1830;DHT22;914;48.118;11.600;2023-08-12T01:17:37;21.80;98.30
1830;DHT22;914;48.118;11.600;2023-08-12T01:20:06;21.70;98.40
1830;DHT22;914;48.118;11.600;2023-08-12T01:22:38;21.60;98.80
1830;DHT22;914;48.118;11.600;2023-08-12T01:25:08;21.60;98.90
1830;DHT22;914;48.118;11.600;2023-08-12T01:27:38;21.70;99.20
1830;DHT22;914;48.118;11.600;2023-08-12T01:30:04;21.80;99.30
1830;DHT22;914;48.118;11.600;2023-08-12T01:32:45;21.70;99.20
1830;DHT22;914;48.118;11.600;2023-08-12T01:35:19;21.70;99.30
1830;DHT22;914;48.118;11.600;2023-08-12T01:37:48;21.60;99.00
1830;DHT22;914;48.118;11.600;2023-08-12T01:40:15;21.50;98.90
1830;DHT22;914;48.118;11.600;2023-08-12T01:42:42;21.40;99.00
1830;DHT22;914;48.118;11.600;2023-08-12T01:45:08;21.40;99.50
1830;DHT22;914;48.118;11.600;2023-08-12T01:47:34;21.30;99.80
1830;DHT22;914;48.118;11.600;2023-08-12T01:49:59;21.20;99.90
1830;DHT22;914;48.118;11.600;2023-08-12T01:52:25;21.20;99.90
1830;DHT22;914;48.118;11.600;2023-08-12T01:54:51;21.20;99.90
1830;DHT22;914;48.118;11.600;2023-08-12T01:57:17;21.20;99.90
1830;DHT22;914;48.118;11.600;2023-08-12T01:59:43;21.20;99.90
1830;DHT22;914;48.118;11.600;2023-08-12T02:02:11;21.20;99.90
1830;DHT22;914;48.118;11.600;2023-08-12T02:04:38;21.10;99.90
1830;DHT22;914;48.118;11.600;2023-08-12T02:07:04;21.30;99.90
1830;DHT22;914;48.118;11.600;2023-08-12T02:09:30;21.40;99.90
1830;DHT22;914;48.118;11.600;2023-08-12T02:11:56;21.50;99.90
1830;DHT22;914;48.118;11.600;2023-08-12T02:14:22;21.40;99.90
1830;DHT22;914;48.118;11.600;2023-08-12T02:16:47;21.30;99.90
1830;DHT22;914;48.118;11.600;2023-08-12T02:19:13;21.10;99.90
1830;DHT22;914;48.118;11.600;2023-08-12T02:21:39;21.00;99.90
1830;DHT22;914;48.118;11.600;2023-08-12T02:24:05;21.00;99.90
1830;DHT22;914;48.118;11.600;2023-08-12T02:26:30;20.90;99.90
1830;DHT22;914;48.118;11.600;2023-08-12T02:28:56;20.90;99.90
1830;DHT22;914;48.118;11.600;2023-08-12T02:31:22;20.80;99.90
1830;DHT22;914;48.118;11.600;2023-08-12T02:33:47;20.80;99.90
1830;DHT22;914;48.118;11.600;2023-08-12T02:36:15;20.90;99.90
1830;DHT22;914;48.118;11.600;2023-08-12T02:38:40;21.00;99.90
1830;DHT22;914;48.118;11.600;2023-08-12T02:41:06;21.10;99.90
1830;DHT22;914;48.118;11.600;2023-08-12T02:43:31;21.20;99.90
1830;DHT22;914;48.118;11.600;2023-08-12T02:45:57;21.20;99.90
1830;DHT22;914;48.118;11.600;2023-08-12T02:48:24;21.30;99.90
1830;DHT22;914;48.118;11.600;2023-08-12T02:50:49;21.20;99.90
1830;DHT22;914;48.118;11.600;2023-08-12T02:53:15;21.10;99.90
1830;DHT22;914;48.118;11.600;2023-08-12T02:55:41;21.10;99.90
1830;DHT22;914;48.118;11.600;2023-08-12T02:58:06;21.00;99.90
1830;DHT22;914;48.118;11.600;2023-08-12T03:00:32;20.90;99.90
1830;DHT22;914;48.118;11.600;2023-08-12T03:02:58;20.80;99.90
1830;DHT22;914;48.118;11.600;2023-08-12T03:05:23;20.80;99.90
1830;DHT22;914;48.118;11.600;2023-08-12T03:07:50;20.80;99.90
1830;DHT22;914;48.118;11.600;2023-08-12T03:10:17;20.70;99.90
1830;DHT22;914;48.118;11.600;2023-08-12T03:12:42;20.60;99.90
1830;DHT22;914;48.118;11.600;2023-08-12T03:15:10;20.60;99.90
1830;DHT22;914;48.118;11.600;2023-08-12T03:17:36;20.50;99.90
1830;DHT22;914;48.118;11.600;2023-08-12T03:20:05;20.60;99.90
1830;DHT22;914;48.118;11.600;2023-08-12T03:22:31;20.40;99.90
1830;DHT22;914;48.118;11.600;2023-08-12T03:24:56;20.40;99.90
1830;DHT22;914;48.118;11.600;2023-08-12T03:27:22;20.30;99.90
1830;DHT22;914;48.118;11.600;2023-08-12T03:29:48;20.20;99.90
1830;DHT22;914;48.118;11.600;2023-08-12T03:32:13;20.10;99.90
1830;DHT22;914;48.118;11.600;2023-08-12T03:34:39;20.10;99.90
1830;DHT22;914;48.118;11.600;2023-08-12T03:37:05;20.00;99.90
1830;DHT22;914;48.118;11.600;2023-08-12T03:39:30;20.10;99.90
1830;DHT22;914;48.118;11.600;2023-08-12T03:41:56;20.00;99.90
1830;DHT22;914;48.118;11.600;2023-08-12T03:44:22;19.80;99.90
1830;DHT22;914;48.118;11.600;2023-08-12T03:46:47;19.70;99.90
1830;DHT22;914;48.118;11.600;2023-08-12T03:49:13;19.80;99.90
1830;DHT22;914;48.118;11.600;2023-08-12T03:51:39;19.80;99.90
1830;DHT22;914;48.118;11.600;2023-08-12T03:54:04;19.90;99.90
1830;DHT22;914;48.118;11.600;2023-08-12T03:56:30;19.80;99.90
1830;DHT22;914;48.118;11.600;2023-08-12T03:58:56;19.70;99.90
1830;DHT22;914;48.118;11.600;2023-08-12T04:01:22;19.60;99.90
1830;DHT22;914;48.118;11.600;2023-08-12T04:03:47;19.70;99.90
1830;DHT22;914;48.118;11.600;2023-08-12T04:06:13;19.70;99.90
1830;DHT22;914;48.118;11.600;2023-08-12T04:08:39;19.70;99.90
1830;DHT22;914;48.118;11.600;2023-08-12T04:11:04;19.70;99.90
1830;DHT22;914;48.118;11.600;2023-08-12T04:13:30;19.70;99.90
1830;DHT22;914;48.118;11.600;2023-08-12T04:15:56;19.80;99.90
1830;DHT22;914;48.118;11.600;2023-08-12T04:18:22;19.90;99.90
1830;DHT22;914;48.118;11.600;2023-08-12T04:20:52;20.00;99.90
1830;DHT22;914;48.118;11.600;2023-08-12T04:23:18;20.10;99.90
1830;DHT22;914;48.118;11.600;2023-08-12T04:25:45;20.00;99.90
1830;DHT22;914;48.118;11.600;2023-08-12T04:28:12;19.90;99.90
1830;DHT22;914;48.118;11.600;2023-08-12T04:30:42;19.80;99.90
1830;DHT22;914;48.118;11.600;2023-08-12T04:33:09;19.80;99.90
1830;DHT22;914;48.118;11.600;2023-08-12T04:35:35;19.80;99.90
1830;DHT22;914;48.118;11.600;2023-08-12T04:38:01;19.70;99.90
1830;DHT22;914;48.118;11.600;2023-08-12T04:40:27;19.70;99.90
1830;DHT22;914;48.118;11.600;2023-08-12T04:42:53;19.80;99.90
1830;DHT22;914;48.118;11.600;2023-08-12T04:45:19;19.70;99.90
1830;DHT22;914;48.118;11.600;2023-08-12T04:47:45;19.80;99.90
1830;DHT22;914;48.118;11.600;2023-08-12T04:50:11;19.80;99.90
1830;DHT22;914;48.118;11.600;2023-08-12T04:52:36;19.70;99.90
1830;DHT22;914;48.118;11.600;2023-08-12T04:55:03;19.70;99.90
1830;DHT22;914;48.118;11.600;2023-08-12T04:57:30;19.70;99.90
1830;DHT22;914;48.118;11.600;2023-08-12T04:59:55;19.80;99.90
1830;DHT22;914;48.118;11.600;2023-08-12T05:02:21;19.70;99.90
1830;DHT22;914;48.118;11.600;2023-08-12T05:04:51;19.70;99.90
1830;DHT22;914;48.118;11.600;2023-08-12T05:07:17;19.80;99.90
1830;DHT22;914;48.118;11.600;2023-08-12T05:09:43;19.90;99.90
1830;DHT22;914;48.118;11.600;2023-08-12T05:12:10;20.00;99.90
1830;DHT22;914;48.118;11.600;2023-08-12T05:14:36;20.10;99.90
1830;DHT22;914;48.118;11.600;2023-08-12T05:17:02;20.10;99.90
1830;DHT22;914;48.118;11.600;2023-08-12T05:19:28;20.10;99.90
1830;DHT22;914;48.118;11.600;2023-08-12T05:21:53;20.20;99.90
1830;DHT22;914;48.118;11.600;2023-08-12T05:24:19;20.40;99.90
1830;DHT22;914;48.118;11.600;2023-08-12T05:26:44;20.50;99.90
1830;DHT22;914;48.118;11.600;2023-08-12T05:29:10;20.50;99.90
1830;DHT22;914;48.118;11.600;2023-08-12T05:31:36;20.60;99.90
1830;DHT22;914;48.118;11.600;2023-08-12T05:34:01;20.60;99.90
1830;DHT22;914;48.118;11.600;2023-08-12T05:36:27;20.70;99.90
1830;DHT22;914;48.118;11.600;2023-08-12T05:38:53;20.80;99.90
1830;DHT22;914;48.118;11.600;2023-08-12T05:41:18;21.00;99.90
1830;DHT22;914;48.118;11.600;2023-08-12T05:43:44;21.10;99.90
1830;DHT22;914;48.118;11.600;2023-08-12T05:46:09;21.20;99.90
1830;DHT22;914;48.118;11.600;2023-08-12T05:48:35;21.30;99.90
1830;DHT22;914;48.118;11.600;2023-08-12T05:51:00;21.30;99.90
1830;DHT22;914;48.118;11.600;2023-08-12T05:53:26;21.30;99.90
1830;DHT22;914;48.118;11.600;2023-08-12T05:55:52;21.40;99.90
1830;DHT22;914;48.118;11.600;2023-08-12T05:58:17;21.70;99.90
1830;DHT22;914;48.118;11.600;2023-08-12T06:00:43;21.80;99.90
1830;DHT22;914;48.118;11.600;2023-08-12T06:03:12;22.00;99.90
1830;DHT22;914;48.118;11.600;2023-08-12T06:05:39;22.20;99.90
1830;DHT22;914;48.118;11.600;2023-08-12T06:08:04;22.30;99.90
1830;DHT22;914;48.118;11.600;2023-08-12T06:10:30;22.30;99.90
1830;DHT22;914;48.118;11.600;2023-08-12T06:12:56;22.40;99.90
1830;DHT22;914;48.118;11.600;2023-08-12T06:15:21;22.50;99.90
1830;DHT22;914;48.118;11.600;2023-08-12T06:17:47;22.70;99.90
1830;DHT22;914;48.118;11.600;2023-08-12T06:20:13;22.90;99.90
1830;DHT22;914;48.118;11.600;2023-08-12T06:22:38;22.90;99.90
1830;DHT22;914;48.118;11.600;2023-08-12T06:25:04;23.00;99.90
1830;DHT22;914;48.118;11.600;2023-08-12T06:27:29;23.10;99.90
1830;DHT22;914;48.118;11.600;2023-08-12T06:29:55;23.40;99.90
1830;DHT22;914;48.118;11.600;2023-08-12T06:32:21;23.40;99.90
1830;DHT22;914;48.118;11.600;2023-08-12T06:34:47;23.60;99.90
1830;DHT22;914;48.118;11.600;2023-08-12T06:37:12;23.70;99.90
1830;DHT22;914;48.118;11.600;2023-08-12T06:39:38;24.00;99.90
1830;DHT22;914;48.118;11.600;2023-08-12T06:42:03;24.10;99.40
1830;DHT22;914;48.118;11.600;2023-08-12T06:44:29;24.10;99.10
1830;DHT22;914;48.118;11.600;2023-08-12T06:46:55;24.30;99.90
1830;DHT22;914;48.118;11.600;2023-08-12T06:49:21;24.50;99.70
1830;DHT22;914;48.118;11.600;2023-08-12T06:51:46;24.50;99.00
1830;DHT22;914;48.118;11.600;2023-08-12T06:54:12;24.60;98.70
1830;DHT22;914;48.118;11.600;2023-08-12T06:56:37;24.60;98.60
1830;DHT22;914;48.118;11.600;2023-08-12T06:59:03;24.60;98.80
1830;DHT22;914;48.118;11.600;2023-08-12T07:01:29;24.60;99.20
1830;DHT22;914;48.118;11.600;2023-08-12T07:03:55;24.50;99.70
1830;DHT22;914;48.118;11.600;2023-08-12T07:06:20;24.70;99.90
1830;DHT22;914;48.118;11.600;2023-08-12T07:08:46;25.00;99.20
1830;DHT22;914;48.118;11.600;2023-08-12T07:11:11;25.00;98.40
1830;DHT22;914;48.118;11.600;2023-08-12T07:13:37;25.20;98.20
1830;DHT22;914;48.118;11.600;2023-08-12T07:16:03;25.40;98.10
1830;DHT22;914;48.118;11.600;2023-08-12T07:18:28;25.60;97.90
1830;DHT22;914;48.118;11.600;2023-08-12T07:20:54;25.70;98.20
1830;DHT22;914;48.118;11.600;2023-08-12T07:23:20;25.40;98.00
1830;DHT22;914;48.118;11.600;2023-08-12T07:25:46;25.30;97.60
1830;DHT22;914;48.118;11.600;2023-08-12T07:28:12;25.40;97.60
1830;DHT22;914;48.118;11.600;2023-08-12T07:30:38;25.60;98.00
1830;DHT22;914;48.118;11.600;2023-08-12T07:33:04;25.90;98.50
1830;DHT22;914;48.118;11.600;2023-08-12T07:35:30;25.90;97.70
1830;DHT22;914;48.118;11.600;2023-08-12T07:37:55;26.10;97.80
1830;DHT22;914;48.118;11.600;2023-08-12T07:40:21;26.40;97.30
1830;DHT22;914;48.118;11.600;2023-08-12T07:42:46;26.60;97.10
1830;DHT22;914;48.118;11.600;2023-08-12T07:45:13;26.60;96.30
1830;DHT22;914;48.118;11.600;2023-08-12T07:47:38;26.90;96.60
1830;DHT22;914;48.118;11.600;2023-08-12T07:50:04;27.00;96.40
1830;DHT22;914;48.118;11.600;2023-08-12T07:52:30;27.00;96.50
1830;DHT22;914;48.118;11.600;2023-08-12T07:54:56;27.10;96.70
1830;DHT22;914;48.118;11.600;2023-08-12T07:57:22;27.10;95.60
1830;DHT22;914;48.118;11.600;2023-08-12T07:59:50;27.00;96.50
1830;DHT22;914;48.118;11.600;2023-08-12T08:02:16;27.20;96.70
1830;DHT22;914;48.118;11.600;2023-08-12T08:04:41;27.60;96.60
1830;DHT22;914;48.118;11.600;2023-08-12T08:07:07;27.90;95.40
1830;DHT22;914;48.118;11.600;2023-08-12T08:09:32;27.90;96.40
1830;DHT22;914;48.118;11.600;2023-08-12T08:11:59;27.80;95.30
1830;DHT22;914;48.118;11.600;2023-08-12T08:14:26;28.00;95.60
1830;DHT22;914;48.118;11.600;2023-08-12T08:16:53;28.00;94.80
1830;DHT22;914;48.118;11.600;2023-08-12T08:19:18;28.10;94.80
1830;DHT22;914;48.118;11.600;2023-08-12T08:21:44;28.60;94.30
1830;DHT22;914;48.118;11.600;2023-08-12T08:24:10;28.90;94.30
1830;DHT22;914;48.118;11.600;2023-08-12T08:26:38;28.80;94.00
1830;DHT22;914;48.118;11.600;2023-08-12T08:29:04;29.00;92.80
1830;DHT22;914;48.118;11.600;2023-08-12T08:31:33;29.10;93.00
1830;DHT22;914;48.118;11.600;2023-08-12T08:33:58;29.10;93.40
1830;DHT22;914;48.118;11.600;2023-08-12T08:36:24;29.10;92.30
1830;DHT22;914;48.118;11.600;2023-08-12T08:38:50;29.70;91.50
1830;DHT22;914;48.118;11.600;2023-08-12T08:41:16;29.20;91.50
1830;DHT22;914;48.118;11.600;2023-08-12T08:43:43;29.00;92.50
1830;DHT22;914;48.118;11.600;2023-08-12T08:46:15;29.00;92.50
1830;DHT22;914;48.118;11.600;2023-08-12T08:48:54;29.10;92.40
1830;DHT22;914;48.118;11.600;2023-08-12T08:51:28;29.00;92.40
1830;DHT22;914;48.118;11.600;2023-08-12T08:53:56;28.80;92.70
1830;DHT22;914;48.118;11.600;2023-08-12T08:56:22;29.20;93.40
1830;DHT22;914;48.118;11.600;2023-08-12T08:58:49;29.50;92.30
1830;DHT22;914;48.118;11.600;2023-08-12T09:01:16;29.50;92.30
1830;DHT22;914;48.118;11.600;2023-08-12T09:03:43;29.50;92.30
1830;DHT22;914;48.118;11.600;2023-08-12T09:06:11;29.10;92.60
1830;DHT22;914;48.118;11.600;2023-08-12T09:08:37;29.00;93.10
1830;DHT22;914;48.118;11.600;2023-08-12T09:11:05;29.30;93.30
1830;DHT22;914;48.118;11.600;2023-08-12T09:13:31;29.40;92.70
1830;DHT22;914;48.118;11.600;2023-08-12T09:15:57;29.50;93.30
1830;DHT22;914;48.118;11.600;2023-08-12T09:18:22;29.60;93.40
1830;DHT22;914;48.118;11.600;2023-08-12T09:20:51;29.80;92.30
1830;DHT22;914;48.118;11.600;2023-08-12T09:23:17;29.90;92.80
1830;DHT22;914;48.118;11.600;2023-08-12T09:25:44;29.70;91.90
1830;DHT22;914;48.118;11.600;2023-08-12T09:28:10;29.60;92.10
1830;DHT22;914;48.118;11.600;2023-08-12T09:30:37;29.90;92.40
1830;DHT22;914;48.118;11.600;2023-08-12T09:33:05;30.20;91.70
1830;DHT22;914;48.118;11.600;2023-08-12T09:35:41;30.30;91.70
1830;DHT22;914;48.118;11.600;2023-08-12T09:38:11;30.30;91.50
1830;DHT22;914;48.118;11.600;2023-08-12T09:40:39;30.50;91.90
1830;DHT22;914;48.118;11.600;2023-08-12T09:43:05;30.60;91.60
1830;DHT22;914;48.118;11.600;2023-08-12T09:45:32;30.80;91.50
1830;DHT22;914;48.118;11.600;2023-08-12T09:47:58;31.20;90.40
1830;DHT22;914;48.118;11.600;2023-08-12T09:50:25;30.90;90.40
1830;DHT22;914;48.118;11.600;2023-08-12T09:52:52;30.70;90.90
1830;DHT22;914;48.118;11.600;2023-08-12T09:55:23;30.80;90.90
1830;DHT22;914;48.118;11.600;2023-08-12T09:57:51;30.30;90.40
1830;DHT22;914;48.118;11.600;2023-08-12T10:00:21;30.10;91.30
1830;DHT22;914;48.118;11.600;2023-08-12T10:02:49;30.00;91.50
1830;DHT22;914;48.118;11.600;2023-08-12T10:05:21;30.00;91.60
1830;DHT22;914;48.118;11.600;2023-08-12T10:07:47;30.30;92.20
1830;DHT22;914;48.118;11.600;2023-08-12T10:10:14;30.40;91.10
1830;DHT22;914;48.118;11.600;2023-08-12T10:12:41;30.60;91.50
1830;DHT22;914;48.118;11.600;2023-08-12T10:15:07;30.80;91.50
1830;DHT22;914;48.118;11.600;2023-08-12T10:17:34;31.00;91.20
1830;DHT22;914;48.118;11.600;2023-08-12T10:20:08;31.10;89.70
1830;DHT22;914;48.118;11.600;2023-08-12T10:22:35;31.20;90.30
1830;DHT22;914;48.118;11.600;2023-08-12T10:25:04;31.30;90.00
1830;DHT22;914;48.118;11.600;2023-08-12T10:27:34;31.50;89.00
1830;DHT22;914;48.118;11.600;2023-08-12T10:30:06;31.40;90.00
1830;DHT22;914;48.118;11.600;2023-08-12T10:32:33;31.30;90.00
1830;DHT22;914;48.118;11.600;2023-08-12T10:34:59;31.20;89.50
1830;DHT22;914;48.118;11.600;2023-08-12T10:37:26;31.20;88.00
1830;DHT22;914;48.118;11.600;2023-08-12T10:39:53;31.10;87.30
1830;DHT22;914;48.118;11.600;2023-08-12T10:42:39;30.80;88.20
1830;DHT22;914;48.118;11.600;2023-08-12T10:45:05;30.50;89.30
1830;DHT22;914;48.118;11.600;2023-08-12T10:47:38;30.90;89.50
1830;DHT22;914;48.118;11.600;2023-08-12T10:50:04;30.60;90.20
1830;DHT22;914;48.118;11.600;2023-08-12T10:52:31;30.70;90.00
1830;DHT22;914;48.118;11.600;2023-08-12T10:55:17;30.90;89.70
1830;DHT22;914;48.118;11.600;2023-08-12T10:57:43;31.30;89.50
1830;DHT22;914;48.118;11.600;2023-08-12T11:00:39;31.50;89.60
1830;DHT22;914;48.118;11.600;2023-08-12T11:03:06;31.50;87.60
1830;DHT22;914;48.118;11.600;2023-08-12T11:05:38;31.50;90.10
1830;DHT22;914;48.118;11.600;2023-08-12T11:08:05;31.60;88.70
1830;DHT22;914;48.118;11.600;2023-08-12T11:10:36;31.60;87.90
1830;DHT22;914;48.118;11.600;2023-08-12T11:13:02;31.20;90.00
1830;DHT22;914;48.118;11.600;2023-08-12T11:15:41;31.30;90.10
1830;DHT22;914;48.118;11.600;2023-08-12T11:18:16;31.50;90.50
1830;DHT22;914;48.118;11.600;2023-08-12T11:20:43;31.40;90.70
1830;DHT22;914;48.118;11.600;2023-08-12T11:23:09;31.70;89.80
1830;DHT22;914;48.118;11.600;2023-08-12T11:25:38;31.90;90.00
1830;DHT22;914;48.118;11.600;2023-08-12T11:28:05;32.00;87.70
1830;DHT22;914;48.118;11.600;2023-08-12T11:30:31;31.80;85.70
1830;DHT22;914;48.118;11.600;2023-08-12T11:32:58;31.60;85.90
1830;DHT22;914;48.118;11.600;2023-08-12T11:35:25;31.80;82.80
1830;DHT22;914;48.118;11.600;2023-08-12T11:37:52;31.50;85.30
1830;DHT22;914;48.118;11.600;2023-08-12T11:40:19;31.50;85.10
1830;DHT22;914;48.118;11.600;2023-08-12T11:42:47;31.80;83.70
1830;DHT22;914;48.118;11.600;2023-08-12T11:45:15;31.60;84.20
1830;DHT22;914;48.118;11.600;2023-08-12T11:47:41;31.70;84.20
1830;DHT22;914;48.118;11.600;2023-08-12T11:50:10;32.20;83.20
1830;DHT22;914;48.118;11.600;2023-08-12T11:52:36;32.50;85.20
1830;DHT22;914;48.118;11.600;2023-08-12T11:55:03;32.80;82.40
1830;DHT22;914;48.118;11.600;2023-08-12T11:57:29;32.60;77.40
1830;DHT22;914;48.118;11.600;2023-08-12T12:00:06;32.80;79.90
1830;DHT22;914;48.118;11.600;2023-08-12T12:05:11;33.00;80.90
1830;DHT22;914;48.118;11.600;2023-08-12T12:07:37;32.70;81.30
1830;DHT22;914;48.118;11.600;2023-08-12T12:10:04;32.80;81.00
1830;DHT22;914;48.118;11.600;2023-08-12T12:12:33;32.80;80.70
1830;DHT22;914;48.118;11.600;2023-08-12T12:15:00;33.00;78.10
1830;DHT22;914;48.118;11.600;2023-08-12T12:17:26;33.20;76.50
1830;DHT22;914;48.118;11.600;2023-08-12T12:19:56;32.80;76.80
1830;DHT22;914;48.118;11.600;2023-08-12T12:22:32;33.50;78.80
1830;DHT22;914;48.118;11.600;2023-08-12T12:24:59;34.50;76.90
1830;DHT22;914;48.118;11.600;2023-08-12T12:27:25;36.00;70.80
1830;DHT22;914;48.118;11.600;2023-08-12T12:29:52;36.70;68.40
1830;DHT22;914;48.118;11.600;2023-08-12T12:32:21;37.20;66.10
1830;DHT22;914;48.118;11.600;2023-08-12T12:34:50;37.10;65.80
1830;DHT22;914;48.118;11.600;2023-08-12T12:37:21;37.00;68.40
1830;DHT22;914;48.118;11.600;2023-08-12T12:39:47;37.70;68.40
1830;DHT22;914;48.118;11.600;2023-08-12T12:42:12;38.80;64.50
1830;DHT22;914;48.118;11.600;2023-08-12T12:44:38;39.50;64.70
1830;DHT22;914;48.118;11.600;2023-08-12T12:47:04;39.50;61.60
1830;DHT22;914;48.118;11.600;2023-08-12T12:49:30;39.90;63.20
1830;DHT22;914;48.118;11.600;2023-08-12T12:51:56;39.40;61.60
1830;DHT22;914;48.118;11.600;2023-08-12T12:54:21;39.80;62.00
1830;DHT22;914;48.118;11.600;2023-08-12T12:56:47;39.10;64.50
1830;DHT22;914;48.118;11.600;2023-08-12T12:59:13;38.90;63.00
1830;DHT22;914;48.118;11.600;2023-08-12T13:01:41;37.40;63.50
1830;DHT22;914;48.118;11.600;2023-08-12T13:04:06;36.60;65.10
1830;DHT22;914;48.118;11.600;2023-08-12T13:06:34;37.30;67.90
1830;DHT22;914;48.118;11.600;2023-08-12T13:09:00;38.60;65.20
1830;DHT22;914;48.118;11.600;2023-08-12T13:11:25;38.60;65.20
1830;DHT22;914;48.118;11.600;2023-08-12T13:13:52;38.90;61.90
1830;DHT22;914;48.118;11.600;2023-08-12T13:16:17;38.30;65.60
1830;DHT22;914;48.118;11.600;2023-08-12T13:18:43;37.30;64.10
1830;DHT22;914;48.118;11.600;2023-08-12T13:21:09;36.30;68.10
1830;DHT22;914;48.118;11.600;2023-08-12T13:23:34;35.50;69.00
1830;DHT22;914;48.118;11.600;2023-08-12T13:26:00;35.20;70.00
1830;DHT22;914;48.118;11.600;2023-08-12T13:28:26;35.10;69.40
1830;DHT22;914;48.118;11.600;2023-08-12T13:30:51;34.90;68.90
1830;DHT22;914;48.118;11.600;2023-08-12T13:33:18;34.80;67.70
1830;DHT22;914;48.118;11.600;2023-08-12T13:35:43;35.00;68.80
1830;DHT22;914;48.118;11.600;2023-08-12T13:38:09;35.10;70.90
1830;DHT22;914;48.118;11.600;2023-08-12T13:40:35;35.00;68.50
1830;DHT22;914;48.118;11.600;2023-08-12T13:43:01;34.50;68.80
1830;DHT22;914;48.118;11.600;2023-08-12T13:45:26;34.40;69.60
1830;DHT22;914;48.118;11.600;2023-08-12T13:47:52;34.20;71.70
1830;DHT22;914;48.118;11.600;2023-08-12T13:50:17;34.40;70.90
1830;DHT22;914;48.118;11.600;2023-08-12T13:52:45;34.40;68.90
1830;DHT22;914;48.118;11.600;2023-08-12T13:55:12;34.20;69.80
1830;DHT22;914;48.118;11.600;2023-08-12T13:57:37;34.20;70.70
1830;DHT22;914;48.118;11.600;2023-08-12T14:00:03;34.10;72.90
1830;DHT22;914;48.118;11.600;2023-08-12T14:02:38;33.90;73.40
1830;DHT22;914;48.118;11.600;2023-08-12T14:05:04;34.20;73.90
1830;DHT22;914;48.118;11.600;2023-08-12T14:07:30;33.80;72.10
1830;DHT22;914;48.118;11.600;2023-08-12T14:09:59;33.60;72.10
1830;DHT22;914;48.118;11.600;2023-08-12T14:12:25;33.60;70.50
1830;DHT22;914;48.118;11.600;2023-08-12T14:14:51;34.00;72.40
1830;DHT22;914;48.118;11.600;2023-08-12T14:17:17;34.00;71.90
1830;DHT22;914;48.118;11.600;2023-08-12T14:19:50;34.30;72.00
1830;DHT22;914;48.118;11.600;2023-08-12T14:22:17;34.10;71.80
1830;DHT22;914;48.118;11.600;2023-08-12T14:24:43;34.10;70.00
1830;DHT22;914;48.118;11.600;2023-08-12T14:27:10;34.10;70.40
1830;DHT22;914;48.118;11.600;2023-08-12T14:29:35;33.90;70.00
1830;DHT22;914;48.118;11.600;2023-08-12T14:32:01;33.40;70.70
1830;DHT22;914;48.118;11.600;2023-08-12T14:34:27;33.50;70.70
1830;DHT22;914;48.118;11.600;2023-08-12T14:36:53;33.30;71.30
1830;DHT22;914;48.118;11.600;2023-08-12T14:39:18;33.20;72.40
1830;DHT22;914;48.118;11.600;2023-08-12T14:41:44;32.90;71.80
1830;DHT22;914;48.118;11.600;2023-08-12T14:44:10;32.70;73.50
1830;DHT22;914;48.118;11.600;2023-08-12T14:46:35;32.80;74.70
1830;DHT22;914;48.118;11.600;2023-08-12T14:49:01;32.90;75.00
1830;DHT22;914;48.118;11.600;2023-08-12T14:51:27;32.90;74.20
1830;DHT22;914;48.118;11.600;2023-08-12T14:53:54;33.20;73.60
1830;DHT22;914;48.118;11.600;2023-08-12T14:56:20;32.90;74.10
1830;DHT22;914;48.118;11.600;2023-08-12T14:58:46;32.90;74.60
1830;DHT22;914;48.118;11.600;2023-08-12T15:01:12;32.90;75.40
1830;DHT22;914;48.118;11.600;2023-08-12T15:03:38;32.80;74.70
1830;DHT22;914;48.118;11.600;2023-08-12T15:06:04;32.60;75.70
1830;DHT22;914;48.118;11.600;2023-08-12T15:08:31;32.20;76.60
1830;DHT22;914;48.118;11.600;2023-08-12T15:10:57;31.70;75.40
1830;DHT22;914;48.118;11.600;2023-08-12T15:13:24;31.40;75.70
1830;DHT22;914;48.118;11.600;2023-08-12T15:15:50;31.40;75.30
1830;DHT22;914;48.118;11.600;2023-08-12T15:18:17;31.30;76.20
1830;DHT22;914;48.118;11.600;2023-08-12T15:20:42;31.20;76.10
1830;DHT22;914;48.118;11.600;2023-08-12T15:23:09;31.20;74.20
1830;DHT22;914;48.118;11.600;2023-08-12T15:25:36;31.10;73.40
1830;DHT22;914;48.118;11.600;2023-08-12T15:28:02;30.90;73.50
1830;DHT22;914;48.118;11.600;2023-08-12T15:30:29;30.70;72.80
1830;DHT22;914;48.118;11.600;2023-08-12T15:32:55;30.60;72.70
1830;DHT22;914;48.118;11.600;2023-08-12T15:35:21;30.50;74.00
1830;DHT22;914;48.118;11.600;2023-08-12T15:37:47;30.50;73.10
1830;DHT22;914;48.118;11.600;2023-08-12T15:40:13;30.70;75.20
1830;DHT22;914;48.118;11.600;2023-08-12T15:42:39;30.80;74.40
1830;DHT22;914;48.118;11.600;2023-08-12T15:45:05;31.00;73.60
1830;DHT22;914;48.118;11.600;2023-08-12T15:47:31;31.00;74.40
1830;DHT22;914;48.118;11.600;2023-08-12T15:49:58;31.00;74.20
1830;DHT22;914;48.118;11.600;2023-08-12T15:52:24;31.20;74.80
1830;DHT22;914;48.118;11.600;2023-08-12T15:54:50;31.30;75.10
1830;DHT22;914;48.118;11.600;2023-08-12T15:57:16;31.20;73.20
1830;DHT22;914;48.118;11.600;2023-08-12T15:59:41;31.20;75.50
1830;DHT22;914;48.118;11.600;2023-08-12T16:02:09;31.20;74.00